MEL weather

Melbourne International Airport
Melbourne, Victoria, Australia

Public forecast

Using degrees Celsius for public forecast. Weather courtesy of forecast.io.

Current aviation weather report (METAR) for Melbourne International Airport

Retrieved 2019/10/22 12:30 UTC (8 minutes ago):

YMML 221230Z 29005KT CAVOK 11/07 Q1023 NOSIG

Aviation forecast (TAF) for Melbourne International Airport

Retrieved 2019/10/22 12:00 UTC (38 minutes ago):

TAF YMML 221106Z 2212/2318 35004KT CAVOK FM230200 23008KT CAVOK FM230700 17008KT CAVOK FM231100 36006KT CAVOK